sensor_id;sensor_type;location;lat;lon;timestamp;temperature;humidity
16313;DHT22;8265;52.622;13.296;2022-11-13T11:13:51;22.30;52.30
16313;DHT22;8265;52.622;13.296;2022-11-13T11:19:12;22.30;52.20
16313;DHT22;8265;52.622;13.296;2022-11-13T11:24:34;22.40;52.20
16313;DHT22;8265;52.622;13.296;2022-11-13T11:29:58;22.30;51.90
16313;DHT22;8265;52.622;13.296;2022-11-13T11:44:51;22.50;52.00
16313;DHT22;8265;52.622;13.296;2022-11-13T11:46:14;22.40;51.90
16313;DHT22;8265;52.622;13.296;2022-11-13T11:52:03;0.00;0.00
16313;DHT22;8265;52.622;13.296;2022-11-13T11:56:50;23.50;50.00
16313;DHT22;8265;52.622;13.296;2022-11-13T12:00:16;23.60;48.80
16313;DHT22;8265;52.622;13.296;2022-11-13T12:03:33;23.00;43.30
16313;DHT22;8265;52.622;13.296;2022-11-13T12:08:37;17.30;58.60
16313;DHT22;8265;52.622;13.296;2022-11-13T12:10:06;17.20;54.50
16313;DHT22;8265;52.622;13.296;2022-11-13T12:11:50;16.00;55.50
16313;DHT22;8265;52.622;13.296;2022-11-13T12:13:38;15.20;57.30
16313;DHT22;8265;52.622;13.296;2022-11-13T12:15:37;14.20;60.40
16313;DHT22;8265;52.622;13.296;2022-11-13T12:17:45;13.60;62.20
16313;DHT22;8265;52.622;13.296;2022-11-13T12:30:03;11.70;68.20
16313;DHT22;8265;52.622;13.296;2022-11-13T12:35:18;11.60;68.80
16313;DHT22;8265;52.622;13.296;2022-11-13T12:40:50;11.30;68.70
16313;DHT22;8265;52.622;13.296;2022-11-13T12:45:55;10.80;69.70
16313;DHT22;8265;52.622;13.296;2022-11-13T12:51:16;10.50;70.80
16313;DHT22;8265;52.622;13.296;2022-11-13T12:56:36;10.30;72.00
16313;DHT22;8265;52.622;13.296;2022-11-13T13:23:25;10.30;73.00
16313;DHT22;8265;52.622;13.296;2022-11-13T13:28:42;10.30;72.80
16313;DHT22;8265;52.622;13.296;2022-11-13T13:50:12;10.30;73.40
16313;DHT22;8265;52.622;13.296;2022-11-13T13:55:34;10.30;73.70
16313;DHT22;8265;52.622;13.296;2022-11-13T14:01:00;10.30;73.90
16313;DHT22;8265;52.622;13.296;2022-11-13T14:06:18;10.30;74.20
16313;DHT22;8265;52.622;13.296;2022-11-13T14:11:29;10.20;74.50
16313;DHT22;8265;52.622;13.296;2022-11-13T14:16:51;10.10;75.10
16313;DHT22;8265;52.622;13.296;2022-11-13T14:22:11;9.90;75.90
16313;DHT22;8265;52.622;13.296;2022-11-13T14:27:32;9.80;76.00
16313;DHT22;8265;52.622;13.296;2022-11-13T14:32:53;9.70;76.60
16313;DHT22;8265;52.622;13.296;2022-11-13T14:38:20;9.70;77.00
16313;DHT22;8265;52.622;13.296;2022-11-13T14:43:35;9.50;77.60
16313;DHT22;8265;52.622;13.296;2022-11-13T14:48:56;9.40;78.00
16313;DHT22;8265;52.622;13.296;2022-11-13T14:54:30;9.20;78.50
16313;DHT22;8265;52.622;13.296;2022-11-13T14:59:39;9.00;79.40
16313;DHT22;8265;52.622;13.296;2022-11-13T15:04:59;8.90;80.00
16313;DHT22;8265;52.622;13.296;2022-11-13T15:10:22;8.60;81.20
16313;DHT22;8265;52.622;13.296;2022-11-13T15:15:41;8.30;82.10
16313;DHT22;8265;52.622;13.296;2022-11-13T15:21:02;8.20;82.70
16313;DHT22;8265;52.622;13.296;2022-11-13T15:26:23;8.00;83.40
16313;DHT22;8265;52.622;13.296;2022-11-13T15:31:45;7.80;83.70
16313;DHT22;8265;52.622;13.296;2022-11-13T15:37:11;7.60;84.70
16313;DHT22;8265;52.622;13.296;2022-11-13T15:42:30;7.50;85.20
16313;DHT22;8265;52.622;13.296;2022-11-13T15:47:47;7.40;85.70
16313;DHT22;8265;52.622;13.296;2022-11-13T15:53:09;7.30;85.90
16313;DHT22;8265;52.622;13.296;2022-11-13T15:58:29;7.20;86.50
16313;DHT22;8265;52.622;13.296;2022-11-13T16:03:50;7.10;86.90
16313;DHT22;8265;52.622;13.296;2022-11-13T16:09:12;7.00;87.10
16313;DHT22;8265;52.622;13.296;2022-11-13T16:14:32;6.80;87.70
16313;DHT22;8265;52.622;13.296;2022-11-13T16:19:53;7.00;88.30
16313;DHT22;8265;52.622;13.296;2022-11-13T16:25:15;6.80;87.80
16313;DHT22;8265;52.622;13.296;2022-11-13T16:30:35;7.10;93.70
16313;DHT22;8265;52.622;13.296;2022-11-13T16:35:56;7.60;92.40
16313;DHT22;8265;52.622;13.296;2022-11-13T16:41:17;7.50;90.10
16313;DHT22;8265;52.622;13.296;2022-11-13T16:46:39;7.30;88.90
16313;DHT22;8265;52.622;13.296;2022-11-13T16:51:59;7.00;87.60
16313;DHT22;8265;52.622;13.296;2022-11-13T16:57:20;6.80;88.10
16313;DHT22;8265;52.622;13.296;2022-11-13T17:02:41;6.70;89.20
16313;DHT22;8265;52.622;13.296;2022-11-13T17:08:02;6.40;89.50
16313;DHT22;8265;52.622;13.296;2022-11-13T17:13:23;6.50;90.60
16313;DHT22;8265;52.622;13.296;2022-11-13T17:18:44;6.40;89.40
16313;DHT22;8265;52.622;13.296;2022-11-13T17:24:05;6.30;89.20
16313;DHT22;8265;52.622;13.296;2022-11-13T17:29:26;6.00;89.60
16313;DHT22;8265;52.622;13.296;2022-11-13T17:34:47;5.90;90.60
16313;DHT22;8265;52.622;13.296;2022-11-13T17:40:08;5.90;91.00
16313;DHT22;8265;52.622;13.296;2022-11-13T17:45:29;6.00;91.00
16313;DHT22;8265;52.622;13.296;2022-11-13T17:50:56;6.10;91.10
16313;DHT22;8265;52.622;13.296;2022-11-13T17:56:11;6.30;91.60
16313;DHT22;8265;52.622;13.296;2022-11-13T18:01:32;6.50;89.90
16313;DHT22;8265;52.622;13.296;2022-11-13T18:06:53;6.60;89.30
16313;DHT22;8265;52.622;13.296;2022-11-13T18:12:14;6.70;89.00
16313;DHT22;8265;52.622;13.296;2022-11-13T18:17:35;6.70;88.30
16313;DHT22;8265;52.622;13.296;2022-11-13T18:22:56;6.70;88.00
16313;DHT22;8265;52.622;13.296;2022-11-13T18:28:17;6.80;87.80
16313;DHT22;8265;52.622;13.296;2022-11-13T18:33:38;6.70;87.90
16313;DHT22;8265;52.622;13.296;2022-11-13T18:38:59;6.70;87.50
16313;DHT22;8265;52.622;13.296;2022-11-13T18:44:20;6.60;87.70
16313;DHT22;8265;52.622;13.296;2022-11-13T18:49:41;6.60;87.50
16313;DHT22;8265;52.622;13.296;2022-11-13T18:55:02;6.60;87.60
16313;DHT22;8265;52.622;13.296;2022-11-13T19:00:23;6.70;87.00
16313;DHT22;8265;52.622;13.296;2022-11-13T19:05:44;6.70;86.90
16313;DHT22;8265;52.622;13.296;2022-11-13T19:11:11;6.80;86.40
16313;DHT22;8265;52.622;13.296;2022-11-13T19:16:26;6.70;86.70
16313;DHT22;8265;52.622;13.296;2022-11-13T19:21:47;6.60;86.80
16313;DHT22;8265;52.622;13.296;2022-11-13T19:27:07;6.50;88.40
16313;DHT22;8265;52.622;13.296;2022-11-13T19:32:28;6.60;87.10
16313;DHT22;8265;52.622;13.296;2022-11-13T19:37:54;6.60;86.80
16313;DHT22;8265;52.622;13.296;2022-11-13T19:43:10;6.60;86.80
16313;DHT22;8265;52.622;13.296;2022-11-13T19:48:32;6.50;87.30
16313;DHT22;8265;52.622;13.296;2022-11-13T19:53:56;6.50;86.70
16313;DHT22;8265;52.622;13.296;2022-11-13T19:59:13;6.50;86.70
16313;DHT22;8265;52.622;13.296;2022-11-13T20:04:34;6.50;87.00
16313;DHT22;8265;52.622;13.296;2022-11-13T20:09:55;6.50;86.80
16313;DHT22;8265;52.622;13.296;2022-11-13T20:15:16;6.40;87.10
16313;DHT22;8265;52.622;13.296;2022-11-13T20:20:41;6.30;87.20
16313;DHT22;8265;52.622;13.296;2022-11-13T20:26:00;6.20;87.70
16313;DHT22;8265;52.622;13.296;2022-11-13T20:31:21;6.30;87.00
16313;DHT22;8265;52.622;13.296;2022-11-13T20:36:40;6.30;86.90
16313;DHT22;8265;52.622;13.296;2022-11-13T20:42:01;6.20;87.00
16313;DHT22;8265;52.622;13.296;2022-11-13T20:47:22;6.20;87.10
16313;DHT22;8265;52.622;13.296;2022-11-13T20:52:43;6.10;87.10
16313;DHT22;8265;52.622;13.296;2022-11-13T20:58:04;6.10;87.60
16313;DHT22;8265;52.622;13.296;2022-11-13T21:03:25;6.20;87.10
16313;DHT22;8265;52.622;13.296;2022-11-13T21:08:46;6.30;87.30
16313;DHT22;8265;52.622;13.296;2022-11-13T21:14:08;6.40;86.60
16313;DHT22;8265;52.622;13.296;2022-11-13T21:19:31;6.50;87.20
16313;DHT22;8265;52.622;13.296;2022-11-13T21:24:49;6.40;85.40
16313;DHT22;8265;52.622;13.296;2022-11-13T21:30:11;6.20;86.00
16313;DHT22;8265;52.622;13.296;2022-11-13T21:35:31;6.20;86.30
16313;DHT22;8265;52.622;13.296;2022-11-13T21:40:59;6.20;86.40
16313;DHT22;8265;52.622;13.296;2022-11-13T21:46:14;6.20;86.30
16313;DHT22;8265;52.622;13.296;2022-11-13T21:51:35;6.30;86.40
16313;DHT22;8265;52.622;13.296;2022-11-13T21:56:55;6.30;86.50
16313;DHT22;8265;52.622;13.296;2022-11-13T22:02:16;6.30;86.30
16313;DHT22;8265;52.622;13.296;2022-11-13T22:07:37;6.30;86.00
16313;DHT22;8265;52.622;13.296;2022-11-13T22:12:58;6.20;86.40
16313;DHT22;8265;52.622;13.296;2022-11-13T22:18:19;6.30;86.70
16313;DHT22;8265;52.622;13.296;2022-11-13T22:23:40;6.30;86.50
16313;DHT22;8265;52.622;13.296;2022-11-13T22:29:01;6.10;86.40
16313;DHT22;8265;52.622;13.296;2022-11-13T22:34:22;6.10;86.40
16313;DHT22;8265;52.622;13.296;2022-11-13T22:39:43;6.00;86.50
16313;DHT22;8265;52.622;13.296;2022-11-13T22:45:05;6.00;86.90
16313;DHT22;8265;52.622;13.296;2022-11-13T22:50:25;6.10;86.80
16313;DHT22;8265;52.622;13.296;2022-11-13T22:55:46;6.00;87.00
16313;DHT22;8265;52.622;13.296;2022-11-13T23:01:08;6.10;86.70
16313;DHT22;8265;52.622;13.296;2022-11-13T23:06:29;6.10;86.70
16313;DHT22;8265;52.622;13.296;2022-11-13T23:11:49;6.10;86.70
16313;DHT22;8265;52.622;13.296;2022-11-13T23:17:10;6.10;86.80
16313;DHT22;8265;52.622;13.296;2022-11-13T23:22:31;6.10;86.70
16313;DHT22;8265;52.622;13.296;2022-11-13T23:27:52;6.10;86.80
16313;DHT22;8265;52.622;13.296;2022-11-13T23:33:13;6.10;86.80
16313;DHT22;8265;52.622;13.296;2022-11-13T23:38:34;6.10;86.80
16313;DHT22;8265;52.622;13.296;2022-11-13T23:43:55;6.20;86.60
16313;DHT22;8265;52.622;13.296;2022-11-13T23:49:16;6.20;86.50
16313;DHT22;8265;52.622;13.296;2022-11-13T23:54:37;6.30;86.20
16313;DHT22;8265;52.622;13.296;2022-11-13T23:59:58;6.30;86.10
